createdAt,value
2023-03-23T16:02:25.524Z,17.11
2023-03-23T16:07:27.584Z,16.89
2023-03-23T16:12:29.330Z,16.68
2023-03-23T16:17:31.163Z,16.49
2023-03-23T16:22:32.988Z,16.35
2023-03-23T16:27:35.076Z,16.20
2023-03-23T16:37:37.497Z,15.91
2023-03-23T16:42:39.476Z,15.81
2023-03-23T16:47:42.425Z,15.75
2023-03-23T16:52:47.648Z,15.67
2023-03-23T16:57:49.378Z,15.57
2023-03-23T17:02:52.622Z,15.46
2023-03-23T17:07:55.966Z,15.39
2023-03-23T17:12:58.059Z,15.25
2023-03-23T17:17:59.904Z,15.10
2023-03-23T17:23:02.172Z,15.00
2023-03-23T17:28:05.873Z,14.92
2023-03-23T17:33:09.971Z,14.79
2023-03-23T17:38:11.998Z,14.69
2023-03-23T17:43:13.713Z,14.58
2023-03-23T17:48:15.612Z,14.46
2023-03-23T17:53:18.703Z,14.34
2023-03-23T17:58:20.844Z,14.26
2023-03-23T18:03:24.545Z,14.20
2023-03-23T18:08:26.992Z,14.17
2023-03-23T18:13:31.774Z,14.17
2023-03-23T18:18:34.097Z,14.15
2023-03-23T18:23:46.181Z,14.14
2023-03-23T18:28:56.071Z,14.17
2023-03-23T18:33:58.084Z,14.19
2023-03-23T18:39:00.073Z,14.20
2023-03-23T18:44:01.776Z,14.20
2023-03-23T18:49:04.287Z,14.21
2023-03-23T18:54:06.011Z,14.20
2023-03-23T18:59:07.681Z,14.19
2023-03-23T19:04:09.558Z,14.17
2023-03-23T19:09:12.717Z,14.13
2023-03-23T19:14:14.546Z,14.09
2023-03-23T19:19:16.584Z,14.10
2023-03-23T19:24:18.591Z,14.16
2023-03-23T19:29:26.528Z,14.23
2023-03-23T19:34:30.520Z,14.27
2023-03-23T19:39:33.629Z,14.29
2023-03-23T19:44:36.173Z,14.32
2023-03-23T19:49:39.010Z,14.40
2023-03-23T19:54:41.498Z,14.47
2023-03-23T19:59:44.536Z,14.52
2023-03-23T20:04:46.884Z,14.51
2023-03-23T20:09:48.848Z,14.48
2023-03-23T20:14:50.776Z,14.52
2023-03-23T20:19:52.549Z,14.61
2023-03-23T20:24:54.662Z,14.69
2023-03-23T20:29:57.024Z,14.76
2023-03-23T20:35:06.405Z,14.82
2023-03-23T20:40:14.478Z,14.88
2023-03-23T20:45:18.438Z,14.95
2023-03-23T20:50:20.310Z,15.00
2023-03-23T20:55:22.069Z,15.04
2023-03-23T21:00:23.787Z,15.04
2023-03-23T21:05:25.811Z,15.05
2023-03-23T21:10:28.520Z,15.05
2023-03-23T21:15:31.275Z,15.04
2023-03-23T21:20:34.119Z,15.07
2023-03-23T21:25:36.982Z,15.07
2023-03-23T21:30:45.348Z,15.09
2023-03-23T21:35:47.326Z,15.09
2023-03-23T21:40:49.410Z,15.08
2023-03-23T21:45:55.963Z,15.06
2023-03-23T21:50:57.677Z,15.03
2023-03-23T21:55:59.535Z,15.02
2023-03-23T22:01:02.232Z,14.98
2023-03-23T22:06:18.333Z,14.95
2023-03-23T22:11:24.605Z,14.92
2023-03-23T22:16:28.923Z,14.89
2023-03-23T22:21:31.492Z,14.84
2023-03-23T22:26:33.718Z,14.72
2023-03-23T22:31:39.677Z,14.56
2023-03-23T22:36:42.279Z,14.41
2023-03-23T22:41:44.948Z,14.27
2023-03-23T22:46:48.825Z,14.15
2023-03-23T22:51:51.644Z,14.10
2023-03-23T22:56:53.509Z,14.12
2023-03-23T23:01:55.762Z,14.15
2023-03-23T23:07:06.686Z,14.19
2023-03-23T23:12:15.231Z,14.22
2023-03-23T23:17:17.119Z,14.28
2023-03-23T23:22:19.600Z,14.34
2023-03-23T23:27:21.592Z,14.40
2023-03-23T23:32:23.395Z,14.44
2023-03-23T23:37:25.306Z,14.43
2023-03-23T23:42:27.178Z,14.39
2023-03-23T23:47:29.261Z,14.34
2023-03-23T23:52:30.990Z,14.31
2023-03-23T23:57:33.434Z,14.29
